KGJT/GJT METAR and TAF weather

Enter ICAO airport designator
Station Type Date Time Source
KGJT METAR 2020/01/23 20:53 UTC NOAA

KGJT 232053Z 00000KT 10SM OVC014 02/M02 A3024 RMK AO2 SLP253 T00221022 58017


Station Type Date Time Source
KGJT Decoded METAR 2020/01/23 20:53 UTC NOAA

GRAND JUNCTION WALKER FIELD, CO, United States (KGJT) 39-08N 108-32W 1452M
Jan 23, 2020 - 03:53 PM EST / 2020.01.23 2053 UTC
Wind: Calm:0
Visibility: 10 mile(s):0
Sky conditions: overcast
Temperature: 36.0 F (2.2 C)
Dew Point: 28.0 F (-2.2 C)
Relative Humidity: 72%
Pressure (altimeter): 30.24 in. Hg (1024 hPa)
Pressure tendency: 0.05 inches (1.7 hPa) lower than three hours ago
ob: KGJT 232053Z 00000KT 10SM OVC014 02/M02 A3024 RMK AO2 SLP253 T00221022 58017
cycle: 21

Station Type Date Time Source
KGJT TAF 2020/01/23 18:34 UTC NOAA

TAF KGJT 231732Z 2318/2418 VRB03KT P6SM OVC013
FM240500 09004KT P6SM OVC010
FM241500 00000KT P6SM SCT010 OVC180

Example: see airport list